Terminal Aerodrome Forecast
Issued by NWS Pittsburgh, PA

Current Version | Previous Version | Graphics & Text | Print | Product List | Glossary On
Versions: 1 2 3 4 5 6 7 8 9 10 11 12 13 14 15 16 17 18 19 20 21 22 23 24 25 26 27 28 29 30 31 32 33 34
000
FTUS41 KPBZ 161400 AAC
TAFPIT
TAF AMD
KPIT 161457Z 1615/1718 16007KT P6SM -SHRA BKN025
     FM161600 18007KT P6SM SCT025 BKN050
      TEMPO 1616/1618 5SM -SHRA BKN025
     FM161800 21008KT P6SM -SHRA OVC015
     FM162200 24010G18KT P6SM OVC008
     FM170800 26008KT P6SM OVC015=

USA.gov is the U.S. government's official web portal to all federal, state and local government web resources and services.